createdAt,value
2023-06-24T00:01:40.671Z,6.80
2023-06-24T00:04:09.597Z,7.20
2023-06-24T00:07:07.397Z,6.80
2023-06-24T00:09:50.802Z,7.00
2023-06-24T00:12:19.707Z,8.40
2023-06-24T00:15:02.857Z,6.90
2023-06-24T00:17:31.602Z,6.30
2023-06-24T00:20:00.444Z,6.40
2023-06-24T00:22:29.243Z,5.90
2023-06-24T00:24:57.854Z,6.00
2023-06-24T00:27:26.622Z,6.00
2023-06-24T00:30:11.864Z,6.50
2023-06-24T00:32:54.837Z,5.80
2023-06-24T00:35:24.103Z,6.50
2023-06-24T00:37:58.573Z,6.00
2023-06-24T00:40:41.499Z,6.40
2023-06-24T00:43:11.519Z,6.40
2023-06-24T00:45:41.026Z,5.90
2023-06-24T00:48:09.991Z,6.70
2023-06-24T00:50:42.584Z,7.10
2023-06-24T00:53:25.413Z,6.10
2023-06-24T00:56:08.297Z,6.60
2023-06-24T00:59:05.423Z,6.10
2023-06-24T01:01:36.086Z,6.50
2023-06-24T01:04:06.154Z,7.30
2023-06-24T01:06:37.473Z,7.00
2023-06-24T01:09:06.447Z,7.10
2023-06-24T01:11:35.267Z,6.70
2023-06-24T01:14:20.542Z,7.30
2023-06-24T01:17:21.401Z,13.00
2023-06-24T01:20:11.262Z,12.10
2023-06-24T01:23:11.349Z,11.30
2023-06-24T01:26:08.873Z,9.50
2023-06-24T01:29:07.164Z,8.20
2023-06-24T01:31:52.246Z,7.60
2023-06-24T01:34:49.340Z,7.80
2023-06-24T01:37:48.064Z,7.80
2023-06-24T01:40:35.431Z,7.00
2023-06-24T01:43:21.614Z,9.10
2023-06-24T01:46:06.221Z,7.40
2023-06-24T01:48:52.302Z,6.30
2023-06-24T01:51:24.835Z,6.40
2023-06-24T01:54:23.368Z,6.10
2023-06-24T01:56:56.461Z,6.20
2023-06-24T01:59:29.144Z,5.70
2023-06-24T02:01:59.954Z,5.60
2023-06-24T02:04:43.168Z,6.40
2023-06-24T02:07:27.667Z,6.60
2023-06-24T02:09:57.763Z,7.00
2023-06-24T02:12:41.305Z,6.60
2023-06-24T02:15:11.431Z,6.70
2023-06-24T02:17:42.974Z,7.00
2023-06-24T02:20:15.455Z,6.60
2023-06-24T02:22:59.804Z,7.40
2023-06-24T02:25:29.262Z,7.00
2023-06-24T02:28:00.220Z,7.60
2023-06-24T02:30:30.511Z,6.90
2023-06-24T02:32:59.334Z,7.50
2023-06-24T02:35:28.085Z,7.80
2023-06-24T02:37:57.119Z,6.80
2023-06-24T02:40:26.635Z,7.10
2023-06-24T02:42:55.498Z,7.60
2023-06-24T02:45:24.731Z,8.90
2023-06-24T02:47:55.221Z,9.40
2023-06-24T02:50:26.350Z,9.30
2023-06-24T02:52:56.028Z,9.50
2023-06-24T02:55:28.658Z,8.80
2023-06-24T02:58:04.199Z,9.00
2023-06-24T03:01:01.920Z,9.20
2023-06-24T03:04:04.026Z,8.70
2023-06-24T03:06:33.959Z,9.60
2023-06-24T03:09:19.622Z,9.00
2023-06-24T03:12:04.181Z,8.80
2023-06-24T03:14:39.496Z,8.40
2023-06-24T03:17:23.022Z,6.80
2023-06-24T03:19:51.718Z,7.50
2023-06-24T03:22:35.049Z,7.40
2023-06-24T03:25:05.142Z,7.40
2023-06-24T03:27:34.539Z,6.70
2023-06-24T03:30:05.739Z,7.30
2023-06-24T03:32:50.778Z,7.60
2023-06-24T03:35:34.528Z,7.40
2023-06-24T03:38:05.864Z,7.50
2023-06-24T03:40:38.386Z,6.70
2023-06-24T03:43:21.748Z,7.50
2023-06-24T03:45:51.690Z,7.10
2023-06-24T03:48:34.773Z,7.80
2023-06-24T03:51:03.697Z,7.50
2023-06-24T03:53:33.620Z,7.20
2023-06-24T03:56:02.516Z,6.90
2023-06-24T03:58:46.156Z,7.10
2023-06-24T04:01:15.041Z,7.50
2023-06-24T04:03:43.775Z,7.60
2023-06-24T04:06:27.317Z,7.10
2023-06-24T04:09:10.647Z,8.50
2023-06-24T04:11:39.369Z,9.10
2023-06-24T04:14:22.290Z,8.80
2023-06-24T04:16:51.284Z,7.70
2023-06-24T04:19:20.090Z,9.60
2023-06-24T04:21:48.762Z,9.40
2023-06-24T04:24:17.384Z,7.50
2023-06-24T04:27:00.359Z,13.30
2023-06-24T04:29:29.209Z,17.00
2023-06-24T04:32:12.264Z,11.60
2023-06-24T04:35:09.772Z,7.40
2023-06-24T04:37:39.164Z,9.50
2023-06-24T04:40:10.112Z,8.60
2023-06-24T04:42:38.814Z,7.60
2023-06-24T04:45:08.531Z,8.00
2023-06-24T04:47:51.943Z,8.40
2023-06-24T04:50:35.109Z,7.30
2023-06-24T04:53:04.046Z,8.90
2023-06-24T04:55:32.962Z,9.50
2023-06-24T04:58:30.843Z,9.30
2023-06-24T05:01:13.785Z,9.40
2023-06-24T05:03:42.771Z,18.30
2023-06-24T05:06:11.629Z,8.90
2023-06-24T05:08:54.974Z,8.00
2023-06-24T05:11:23.700Z,8.60
2023-06-24T05:13:53.273Z,8.90
2023-06-24T05:16:36.520Z,8.50
2023-06-24T05:19:05.329Z,7.80
2023-06-24T05:21:34.046Z,8.10
2023-06-24T05:24:02.883Z,7.60
2023-06-24T05:26:31.846Z,6.90
2023-06-24T05:29:00.590Z,6.80
2023-06-24T05:31:29.668Z,8.00
2023-06-24T05:33:58.448Z,7.10
2023-06-24T05:36:27.206Z,7.10
2023-06-24T05:38:55.881Z,6.50
2023-06-24T05:41:54.520Z,6.50
2023-06-24T05:44:37.772Z,6.60
2023-06-24T05:47:06.693Z,6.20
2023-06-24T05:49:35.429Z,6.50
2023-06-24T05:52:04.724Z,6.80
2023-06-24T05:54:33.462Z,6.70
2023-06-24T05:57:16.440Z,7.50
2023-06-24T05:59:59.333Z,7.20
2023-06-24T06:02:57.011Z,7.40
2023-06-24T06:05:25.923Z,6.70
2023-06-24T06:07:54.823Z,6.70
2023-06-24T06:10:23.545Z,6.90
2023-06-24T06:13:06.904Z,6.60
2023-06-24T06:15:35.787Z,6.50
2023-06-24T06:18:05.239Z,6.30
2023-06-24T06:20:34.016Z,6.30
2023-06-24T06:23:02.751Z,6.30
2023-06-24T06:25:31.588Z,6.20
2023-06-24T06:28:00.287Z,6.30
2023-06-24T06:30:28.971Z,6.20
2023-06-24T06:32:57.676Z,6.40
2023-06-24T06:35:26.420Z,7.10
2023-06-24T06:38:09.806Z,6.50
2023-06-24T06:40:52.942Z,5.70
2023-06-24T06:43:22.689Z,6.50
2023-06-24T06:45:51.724Z,6.80
2023-06-24T06:48:34.593Z,5.90
2023-06-24T06:51:03.492Z,5.70
2023-06-24T06:53:32.251Z,6.00
2023-06-24T06:56:00.999Z,8.40
2023-06-24T06:58:29.985Z,6.30
2023-06-24T07:01:13.204Z,5.80
2023-06-24T07:03:56.630Z,6.00
2023-06-24T07:06:40.242Z,6.00
2023-06-24T07:09:08.993Z,5.80
2023-06-24T07:11:51.986Z,5.50
2023-06-24T07:14:20.710Z,5.90
2023-06-24T07:16:49.907Z,5.50
2023-06-24T07:19:32.801Z,5.90
2023-06-24T07:22:01.554Z,5.70
2023-06-24T07:24:30.443Z,5.90
2023-06-24T07:26:59.245Z,6.30
2023-06-24T07:29:27.923Z,7.30
2023-06-24T07:32:10.896Z,6.00
2023-06-24T07:34:53.727Z,5.20
2023-06-24T07:37:24.803Z,6.10
2023-06-24T07:39:53.952Z,7.80
2023-06-24T07:42:23.968Z,5.40
2023-06-24T07:44:52.810Z,27.70
2023-06-24T07:47:22.280Z,9.30
2023-06-24T07:49:52.015Z,5.70
2023-06-24T07:52:35.069Z,5.50
2023-06-24T07:55:04.736Z,5.50
2023-06-24T07:57:33.617Z,5.00
2023-06-24T08:00:17.629Z,6.20
2023-06-24T08:02:46.415Z,4.90
2023-06-24T08:05:15.172Z,5.00
2023-06-24T08:08:12.268Z,5.30
2023-06-24T08:10:40.962Z,4.50
2023-06-24T08:13:09.937Z,4.60
2023-06-24T08:15:53.271Z,4.80
2023-06-24T08:18:22.003Z,4.80
2023-06-24T08:20:50.866Z,4.50
2023-06-24T08:23:19.633Z,4.70
2023-06-24T08:25:48.867Z,4.60
2023-06-24T08:28:17.591Z,4.80
2023-06-24T08:30:46.336Z,4.90
2023-06-24T08:33:15.020Z,5.20
2023-06-24T08:35:43.868Z,5.40
2023-06-24T08:38:12.674Z,5.50
2023-06-24T08:41:09.779Z,5.30
2023-06-24T08:43:39.437Z,5.20
2023-06-24T08:46:22.352Z,5.60
2023-06-24T08:48:55.149Z,5.10
2023-06-24T08:51:45.226Z,5.30
2023-06-24T08:54:17.153Z,4.80
2023-06-24T08:56:45.982Z,5.20
2023-06-24T08:59:19.633Z,4.70
2023-06-24T09:01:48.465Z,4.80
2023-06-24T09:04:31.547Z,4.90
2023-06-24T09:07:14.619Z,5.50
2023-06-24T09:10:15.179Z,6.20
2023-06-24T09:13:00.390Z,5.60
2023-06-24T09:15:43.342Z,5.10
2023-06-24T09:18:12.427Z,5.80
2023-06-24T09:21:09.594Z,5.40
2023-06-24T09:24:06.747Z,7.10
2023-06-24T09:26:35.428Z,6.00
2023-06-24T09:29:05.657Z,5.40
2023-06-24T09:31:34.473Z,5.80
2023-06-24T09:34:17.700Z,5.50
2023-06-24T09:36:51.483Z,5.50
2023-06-24T09:39:34.915Z,5.80
2023-06-24T09:42:05.569Z,4.80
2023-06-24T09:44:34.893Z,4.70
2023-06-24T09:47:04.242Z,5.10
2023-06-24T09:49:33.025Z,5.00
2023-06-24T09:52:05.468Z,5.10
2023-06-24T09:54:35.161Z,5.20
2023-06-24T09:57:06.104Z,4.60
2023-06-24T09:59:35.636Z,5.20
2023-06-24T10:02:07.558Z,4.80
2023-06-24T10:04:52.485Z,5.10
2023-06-24T10:07:22.242Z,5.70
2023-06-24T10:10:05.315Z,5.40
2023-06-24T10:12:48.690Z,5.80
2023-06-24T10:15:17.571Z,6.40
2023-06-24T10:18:16.611Z,7.60
2023-06-24T10:21:13.968Z,9.30
2023-06-24T10:23:52.129Z,6.10
2023-06-24T10:26:49.501Z,5.40
2023-06-24T10:29:21.386Z,5.30
2023-06-24T10:32:07.952Z,5.60
2023-06-24T10:35:05.575Z,5.60
2023-06-24T10:37:34.989Z,5.20
2023-06-24T10:40:05.937Z,4.40
2023-06-24T10:42:56.545Z,5.10
2023-06-24T10:45:25.306Z,4.80
2023-06-24T10:47:56.874Z,5.40
2023-06-24T10:50:25.917Z,4.90
2023-06-24T10:53:23.827Z,5.20
2023-06-24T10:55:52.570Z,4.70
2023-06-24T10:58:21.366Z,4.80
2023-06-24T11:01:11.519Z,5.30
2023-06-24T11:03:56.221Z,5.40
2023-06-24T11:08:52.855Z,5.10
2023-06-24T11:11:36.434Z,4.60
2023-06-24T11:14:20.293Z,5.00
2023-06-24T11:16:49.034Z,5.00
2023-06-24T11:19:17.889Z,5.50
2023-06-24T11:22:14.952Z,18.50
2023-06-24T11:24:43.800Z,7.90
2023-06-24T11:27:26.849Z,5.80
2023-06-24T11:30:10.405Z,5.20
2023-06-24T11:32:39.906Z,4.20
2023-06-24T11:35:37.732Z,4.30
2023-06-24T11:38:20.619Z,4.60
2023-06-24T11:41:03.521Z,4.10
2023-06-24T11:43:46.464Z,4.10
2023-06-24T11:46:24.625Z,3.10
2023-06-24T11:48:53.659Z,3.60
2023-06-24T11:51:25.115Z,3.50
2023-06-24T11:53:53.824Z,3.90
2023-06-24T11:56:51.286Z,4.00
2023-06-24T11:59:21.842Z,4.70
2023-06-24T12:01:58.464Z,5.10
2023-06-24T12:04:44.449Z,3.60
2023-06-24T12:07:27.803Z,3.40
2023-06-24T12:09:56.485Z,5.00
2023-06-24T12:12:25.544Z,4.10
2023-06-24T12:14:54.742Z,4.00
2023-06-24T12:17:23.602Z,4.10
2023-06-24T12:20:06.644Z,4.10
2023-06-24T12:22:36.089Z,3.50
2023-06-24T12:25:05.582Z,3.90
2023-06-24T12:27:48.584Z,3.80
2023-06-24T12:30:45.690Z,3.70
2023-06-24T12:33:16.484Z,3.60
2023-06-24T12:35:46.096Z,4.50
2023-06-24T12:38:16.404Z,3.20
2023-06-24T12:40:45.574Z,3.70
2023-06-24T12:43:14.961Z,4.00
2023-06-24T12:45:58.365Z,3.60
2023-06-24T12:48:41.808Z,3.30
2023-06-24T12:51:10.489Z,3.90
2023-06-24T12:53:39.336Z,3.40
2023-06-24T12:56:22.598Z,3.50
2023-06-24T12:58:51.466Z,5.60
2023-06-24T13:01:34.387Z,4.30
2023-06-24T13:04:03.273Z,3.40
2023-06-24T13:06:32.046Z,3.40
2023-06-24T13:09:00.821Z,3.60
2023-06-24T13:11:30.031Z,3.10
2023-06-24T13:14:13.069Z,3.40
2023-06-24T13:17:10.626Z,3.40
2023-06-24T13:19:40.155Z,3.30
2023-06-24T13:22:09.952Z,3.50
2023-06-24T13:24:39.761Z,3.20
2023-06-24T13:27:10.117Z,3.30
2023-06-24T13:29:38.948Z,2.90
2023-06-24T13:32:09.201Z,3.50
2023-06-24T13:34:38.053Z,3.50
2023-06-24T13:37:07.154Z,3.80
2023-06-24T13:39:50.035Z,3.80
2023-06-24T13:42:18.846Z,3.50
2023-06-24T13:45:01.743Z,3.20
2023-06-24T13:47:30.703Z,3.10
2023-06-24T13:50:00.035Z,3.70
2023-06-24T13:52:28.811Z,23.70
2023-06-24T13:54:59.580Z,5.50
2023-06-24T13:57:42.577Z,3.50
2023-06-24T14:00:13.730Z,4.20
2023-06-24T14:02:42.704Z,4.70
2023-06-24T14:05:11.741Z,3.90
2023-06-24T14:07:40.528Z,3.80
2023-06-24T14:10:11.297Z,3.80
2023-06-24T14:12:43.365Z,3.70
2023-06-24T14:15:13.530Z,3.90
2023-06-24T14:17:42.239Z,3.40
2023-06-24T14:20:12.681Z,3.40
2023-06-24T14:22:55.569Z,3.70
2023-06-24T14:25:24.579Z,3.60
2023-06-24T14:27:53.400Z,3.60
2023-06-24T14:30:36.926Z,3.30
2023-06-24T14:33:20.135Z,3.80
2023-06-24T14:36:03.234Z,3.80
2023-06-24T14:38:46.260Z,3.50
2023-06-24T14:41:14.997Z,19.70
2023-06-24T14:43:57.957Z,4.10
2023-06-24T14:46:26.941Z,23.60
2023-06-24T14:48:55.717Z,17.50
2023-06-24T14:51:28.136Z,6.10
2023-06-24T14:53:57.267Z,67.80
2023-06-24T14:56:26.150Z,19.80
2023-06-24T14:59:09.192Z,14.30
2023-06-24T15:01:53.531Z,6.20
2023-06-24T15:04:24.156Z,4.70
2023-06-24T15:06:54.574Z,3.90
2023-06-24T15:09:24.784Z,3.60
2023-06-24T15:11:53.805Z,4.30
2023-06-24T15:14:22.905Z,3.30
2023-06-24T15:16:54.305Z,3.60
2023-06-24T15:19:23.257Z,3.90
2023-06-24T15:21:52.387Z,3.50
2023-06-24T15:24:21.337Z,3.90
2023-06-24T15:26:50.125Z,3.70
2023-06-24T15:29:19.021Z,4.00
2023-06-24T15:31:47.861Z,3.00
2023-06-24T15:34:31.589Z,3.70
2023-06-24T15:37:00.494Z,3.50
2023-06-24T15:39:30.310Z,3.70
2023-06-24T15:42:13.269Z,4.00
2023-06-24T15:44:42.907Z,3.80
2023-06-24T15:47:29.166Z,4.30
2023-06-24T15:50:00.973Z,3.60
2023-06-24T15:52:30.112Z,4.00
2023-06-24T15:55:13.098Z,4.60
2023-06-24T15:57:41.816Z,3.80
2023-06-24T16:00:12.513Z,3.60
2023-06-24T16:02:57.086Z,3.90
2023-06-24T16:05:27.081Z,4.00
2023-06-24T16:07:56.208Z,3.50
2023-06-24T16:10:25.230Z,4.30
2023-06-24T16:13:08.688Z,5.10
2023-06-24T16:15:51.838Z,9.40
2023-06-24T16:18:35.353Z,6.70
2023-06-24T16:21:04.250Z,8.10
2023-06-24T16:23:33.211Z,5.90
2023-06-24T16:26:02.754Z,5.90
2023-06-24T16:28:32.087Z,5.10
2023-06-24T16:31:00.875Z,5.30
2023-06-24T16:33:43.890Z,6.30
2023-06-24T16:36:27.403Z,6.90
2023-06-24T16:38:56.164Z,7.80
2023-06-24T16:41:25.130Z,5.50
2023-06-24T16:43:54.509Z,4.80
2023-06-24T16:46:23.994Z,6.70
2023-06-24T16:49:07.310Z,6.30
2023-06-24T16:51:50.226Z,6.80
2023-06-24T16:54:21.735Z,6.80
2023-06-24T16:56:50.462Z,5.70
2023-06-24T16:59:34.654Z,5.20
2023-06-24T17:02:04.126Z,5.50
2023-06-24T17:04:33.290Z,4.90
2023-06-24T17:07:02.629Z,5.90
2023-06-24T17:09:46.864Z,5.30
2023-06-24T17:12:16.477Z,5.00
2023-06-24T17:14:45.918Z,5.10
2023-06-24T17:17:15.431Z,5.30
2023-06-24T17:19:58.834Z,10.50
2023-06-24T17:22:28.387Z,9.20
2023-06-24T17:25:11.341Z,13.40
2023-06-24T17:27:40.331Z,9.20
2023-06-24T17:30:10.582Z,9.90
2023-06-24T17:32:40.441Z,9.90
2023-06-24T17:35:10.227Z,8.60
2023-06-24T17:37:39.799Z,11.10
2023-06-24T17:40:10.948Z,12.80
2023-06-24T17:42:39.940Z,7.00
2023-06-24T17:45:09.867Z,6.20
2023-06-24T17:47:38.639Z,8.90
2023-06-24T17:50:08.450Z,8.70
2023-06-24T17:52:51.338Z,8.50
2023-06-24T17:55:20.568Z,7.20
2023-06-24T17:57:49.313Z,7.90
2023-06-24T18:00:18.576Z,7.90
2023-06-24T18:03:01.725Z,10.30
2023-06-24T18:05:45.850Z,9.50
2023-06-24T18:08:15.357Z,10.40
2023-06-24T18:10:58.793Z,10.40
2023-06-24T18:13:55.996Z,9.10
2023-06-24T18:16:25.177Z,9.00
2023-06-24T18:18:53.973Z,7.90
2023-06-24T18:21:22.797Z,8.50
2023-06-24T18:23:51.516Z,6.20
2023-06-24T18:26:36.462Z,6.90
2023-06-24T18:29:06.209Z,8.80
2023-06-24T18:31:37.412Z,8.10
2023-06-24T18:34:06.561Z,7.20
2023-06-24T18:37:04.588Z,6.40
2023-06-24T18:39:33.548Z,7.70
2023-06-24T18:42:02.312Z,7.10
2023-06-24T18:44:31.440Z,13.50
2023-06-24T18:47:00.228Z,10.50
2023-06-24T18:49:44.363Z,8.90
2023-06-24T18:52:14.227Z,13.90
2023-06-24T18:54:43.941Z,11.30
2023-06-24T18:57:13.787Z,15.70
2023-06-24T18:59:44.794Z,16.10
2023-06-24T19:02:14.664Z,13.20
2023-06-24T19:04:44.414Z,8.60
2023-06-24T19:07:14.246Z,8.40
2023-06-24T19:09:43.881Z,6.60
2023-06-24T19:12:13.412Z,7.10
2023-06-24T19:14:43.849Z,6.30
2023-06-24T19:17:26.907Z,9.20
2023-06-24T19:19:56.954Z,9.10
2023-06-24T19:22:26.820Z,7.50
2023-06-24T19:24:56.727Z,7.00
2023-06-24T19:27:40.556Z,6.30
2023-06-24T19:30:38.816Z,6.60
2023-06-24T19:33:08.410Z,5.10
2023-06-24T19:35:38.575Z,5.50
2023-06-24T19:38:08.421Z,6.60
2023-06-24T19:40:37.674Z,5.60
2023-06-24T19:43:22.174Z,7.10
2023-06-24T19:49:03.092Z,5.90
2023-06-24T19:51:32.132Z,6.30
2023-06-24T19:54:01.035Z,7.90
2023-06-24T19:56:30.030Z,7.90
2023-06-24T19:58:59.389Z,7.50
2023-06-24T20:04:26.311Z,7.00
2023-06-24T20:06:55.656Z,6.50
2023-06-24T20:09:39.290Z,6.60
2023-06-24T20:12:09.829Z,6.40
2023-06-24T20:14:53.099Z,6.20
2023-06-24T20:17:22.065Z,7.20
2023-06-24T20:19:51.033Z,6.10
2023-06-24T20:22:34.420Z,6.60
2023-06-24T20:25:03.418Z,5.80
2023-06-24T20:28:01.024Z,5.90
2023-06-24T20:30:44.302Z,5.50
2023-06-24T20:33:28.598Z,5.80
2023-06-24T20:35:57.943Z,5.60
2023-06-24T20:38:27.294Z,6.20
2023-06-24T20:41:10.300Z,6.20
2023-06-24T20:43:39.675Z,5.60
2023-06-24T20:46:08.444Z,6.10
2023-06-24T20:48:52.264Z,5.40
2023-06-24T20:51:35.927Z,6.70
2023-06-24T20:54:04.892Z,17.20
2023-06-24T20:56:33.713Z,101.50
2023-06-24T20:59:16.705Z,43.90
2023-06-24T21:01:45.632Z,49.80
2023-06-24T21:04:15.507Z,28.40
2023-06-24T21:06:45.113Z,95.70
2023-06-24T21:09:42.286Z,115.20
2023-06-24T21:12:26.020Z,41.30
2023-06-24T21:14:55.213Z,39.90
2023-06-24T21:17:40.162Z,40.60
2023-06-24T21:22:38.054Z,15.80
2023-06-24T21:25:08.047Z,9.30
2023-06-24T21:27:37.144Z,7.10
2023-06-24T21:30:08.169Z,6.10
2023-06-24T21:32:36.984Z,5.90
2023-06-24T21:35:08.029Z,7.00
2023-06-24T21:37:52.036Z,7.50
2023-06-24T21:40:35.533Z,8.60
2023-06-24T21:43:04.780Z,8.20
2023-06-24T21:45:33.483Z,7.10
2023-06-24T21:48:48.806Z,6.50
2023-06-24T21:51:35.252Z,6.60
2023-06-24T21:57:48.739Z,8.60
2023-06-24T22:00:19.178Z,7.80
2023-06-24T22:02:49.441Z,6.40
2023-06-24T22:05:33.155Z,6.60
2023-06-24T22:10:31.424Z,6.70
2023-06-24T22:13:14.407Z,7.20
2023-06-24T22:15:43.425Z,6.20
2023-06-24T22:18:13.432Z,5.90
2023-06-24T22:20:42.340Z,4.90
2023-06-24T22:23:25.649Z,5.50
2023-06-24T22:25:54.968Z,6.30
2023-06-24T22:28:24.026Z,5.70
2023-06-24T22:31:35.860Z,5.20
2023-06-24T22:34:05.388Z,5.50
2023-06-24T22:36:34.141Z,5.30
2023-06-24T22:39:03.038Z,7.60
2023-06-24T22:41:45.933Z,6.70
2023-06-24T22:44:14.789Z,7.10
2023-06-24T22:46:43.637Z,6.00
2023-06-24T22:49:29.103Z,5.80
2023-06-24T22:52:12.560Z,4.90
2023-06-24T22:54:41.668Z,5.50
2023-06-24T22:57:10.451Z,5.10
2023-06-24T22:59:53.366Z,5.40
2023-06-24T23:02:23.649Z,5.10
2023-06-24T23:04:54.506Z,4.60
2023-06-24T23:07:25.761Z,15.90
2023-06-24T23:09:55.252Z,12.20
2023-06-24T23:12:40.845Z,11.50
2023-06-24T23:15:11.457Z,13.20
2023-06-24T23:17:40.893Z,10.10
2023-06-24T23:20:12.392Z,11.70
2023-06-24T23:22:41.722Z,9.80
2023-06-24T23:25:12.101Z,12.80
2023-06-24T23:27:56.869Z,10.20
2023-06-24T23:30:29.341Z,12.80
2023-06-24T23:33:13.612Z,10.40
2023-06-24T23:35:43.073Z,14.50
2023-06-24T23:38:12.671Z,15.20
2023-06-24T23:40:56.251Z,16.50
2023-06-24T23:43:25.776Z,15.10
2023-06-24T23:45:56.006Z,16.00
2023-06-24T23:48:25.031Z,12.90
2023-06-24T23:50:54.074Z,14.60
2023-06-24T23:53:37.212Z,12.70
2023-06-24T23:56:20.593Z,13.40
2023-06-24T23:58:49.290Z,15.70
